createdAt,value
2017-08-03T00:00:12.792Z,70.86
2017-08-03T00:01:12.786Z,71.14
2017-08-03T00:02:12.778Z,71.04
2017-08-03T00:03:13.008Z,71.04
2017-08-03T00:04:12.776Z,70.56
2017-08-03T00:05:12.770Z,71.14
2017-08-03T00:06:12.763Z,70.56
2017-08-03T00:07:12.756Z,71.14
2017-08-03T00:08:12.752Z,70.86
2017-08-03T00:09:13.042Z,71.04
2017-08-03T00:10:12.725Z,70.86
2017-08-03T00:11:12.720Z,71.53
2017-08-03T00:12:12.726Z,71.53
2017-08-03T00:13:12.708Z,71.24
2017-08-03T00:14:12.701Z,71.34
2017-08-03T00:15:13.086Z,71.62
2017-08-03T00:16:12.692Z,71.81
2017-08-03T00:17:12.694Z,71.81
2017-08-03T00:18:12.676Z,72.11
2017-08-03T00:19:12.676Z,72.30
2017-08-03T00:20:12.674Z,72.30
2017-08-03T00:21:13.074Z,72.30
2017-08-03T00:22:12.653Z,72.26
2017-08-03T00:23:12.644Z,72.74
2017-08-03T00:24:12.654Z,71.88
2017-08-03T00:25:12.642Z,72.55
2017-08-03T00:26:12.632Z,72.36
2017-08-03T00:27:12.857Z,72.55
2017-08-03T00:28:12.616Z,72.59
2017-08-03T00:29:12.610Z,72.17
2017-08-03T00:30:12.608Z,72.39
2017-08-03T00:31:12.610Z,72.01
2017-08-03T00:32:12.602Z,72.20
2017-08-03T00:33:12.990Z,72.11
2017-08-03T00:34:12.586Z,72.11
2017-08-03T00:35:12.575Z,72.49
2017-08-03T00:36:12.562Z,72.01
2017-08-03T00:37:12.563Z,71.72
2017-08-03T00:38:12.562Z,71.53
2017-08-03T00:39:12.602Z,71.72
2017-08-03T00:40:12.538Z,71.81
2017-08-03T00:41:12.544Z,71.62
2017-08-03T00:42:12.527Z,71.81
2017-08-03T00:43:12.841Z,71.72
2017-08-03T00:44:12.518Z,71.81
2017-08-03T00:45:12.522Z,71.53
2017-08-03T00:46:12.499Z,71.81
2017-08-03T00:47:12.511Z,71.43
2017-08-03T00:48:12.502Z,71.43
2017-08-03T00:49:12.727Z,71.24
2017-08-03T00:50:12.487Z,71.53
2017-08-03T00:51:12.479Z,71.24
2017-08-03T00:52:12.464Z,71.72
2017-08-03T00:53:12.465Z,71.43
2017-08-03T00:54:12.452Z,71.62
2017-08-03T00:55:12.852Z,71.72
2017-08-03T00:56:12.457Z,72.01
2017-08-03T00:57:12.434Z,72.39
2017-08-03T00:58:12.424Z,72.49
2017-08-03T00:59:12.429Z,72.39
2017-08-03T01:00:12.426Z,72.39
2017-08-03T01:01:12.653Z,72.17
2017-08-03T01:02:12.413Z,72.49
2017-08-03T01:03:12.417Z,72.26
2017-08-03T01:04:12.391Z,72.36
2017-08-03T01:05:12.382Z,72.39
2017-08-03T01:06:12.374Z,72.84
2017-08-03T01:07:12.658Z,72.94
2017-08-03T01:08:12.384Z,73.13
2017-08-03T01:09:12.357Z,73.32
2017-08-03T01:10:12.356Z,73.13
2017-08-03T01:11:12.339Z,73.22
2017-08-03T01:12:12.347Z,73.42
2017-08-03T01:13:12.654Z,73.71
2017-08-03T01:14:12.323Z,73.90
2017-08-03T01:15:12.331Z,73.90
2017-08-03T01:16:12.312Z,73.80
2017-08-03T01:17:12.311Z,74.19
2017-08-03T01:18:12.299Z,74.19
2017-08-03T01:19:12.339Z,74.19
2017-08-03T01:20:12.297Z,74.67
2017-08-03T01:21:12.290Z,75.54
2017-08-03T01:22:12.277Z,75.40
2017-08-03T01:23:12.277Z,74.86
2017-08-03T01:24:12.511Z,74.76
2017-08-03T01:25:12.252Z,74.92
2017-08-03T01:26:12.248Z,74.82
2017-08-03T01:27:12.240Z,74.67
2017-08-03T01:28:12.246Z,74.57
2017-08-03T01:29:12.241Z,74.76
2017-08-03T01:30:12.518Z,74.86
2017-08-03T01:31:12.221Z,74.96
2017-08-03T01:32:12.222Z,75.15
2017-08-03T01:33:12.223Z,74.76
2017-08-03T01:34:12.196Z,74.48
2017-08-03T01:35:12.205Z,74.86
2017-08-03T01:36:12.495Z,74.48
2017-08-03T01:37:12.177Z,74.86
2017-08-03T01:38:12.170Z,75.05
2017-08-03T01:39:12.163Z,75.24
2017-08-03T01:40:12.163Z,74.76
2017-08-03T01:41:12.151Z,74.67
2017-08-03T01:42:12.456Z,74.67
2017-08-03T01:43:12.148Z,74.67
2017-08-03T01:44:12.131Z,74.76
2017-08-03T01:45:12.145Z,75.05
2017-08-03T01:46:12.141Z,75.15
2017-08-03T01:47:12.123Z,74.09
2017-08-03T01:48:12.569Z,74.76
2017-08-03T01:49:12.111Z,74.67
2017-08-03T01:50:12.095Z,74.29
2017-08-03T01:51:12.086Z,74.96
2017-08-03T01:52:12.096Z,74.29
2017-08-03T01:53:12.075Z,74.29
2017-08-03T01:54:12.511Z,74.57
2017-08-03T01:55:12.072Z,74.48
2017-08-03T01:56:12.057Z,74.48
2017-08-03T01:57:12.066Z,74.29
2017-08-03T01:58:12.040Z,74.29
2017-08-03T01:59:12.035Z,74.48
2017-08-03T02:00:12.437Z,74.48
2017-08-03T02:01:12.024Z,74.96
2017-08-03T02:02:12.025Z,74.76
2017-08-03T02:03:12.021Z,74.96
2017-08-03T02:04:12.002Z,74.57
2017-08-03T02:05:12.019Z,74.86
2017-08-03T02:06:12.212Z,74.38
2017-08-03T02:07:11.986Z,75.05
2017-08-03T02:08:11.991Z,74.29
2017-08-03T02:09:11.974Z,75.15
2017-08-03T02:10:11.964Z,74.29
2017-08-03T02:11:11.964Z,74.29
2017-08-03T02:12:12.393Z,74.76
2017-08-03T02:13:11.945Z,74.76
2017-08-03T02:14:11.939Z,74.76
2017-08-03T02:15:11.945Z,73.99
2017-08-03T02:16:11.931Z,74.38
2017-08-03T02:17:11.932Z,74.96
2017-08-03T02:18:12.311Z,74.57
2017-08-03T02:19:11.917Z,75.15
2017-08-03T02:20:11.908Z,74.57
2017-08-03T02:21:11.905Z,74.48
2017-08-03T02:22:11.895Z,74.48
2017-08-03T02:23:11.880Z,74.76
2017-08-03T02:24:12.178Z,74.29
2017-08-03T02:25:11.879Z,74.57
2017-08-03T02:26:11.868Z,74.29
2017-08-03T02:27:11.861Z,74.38
2017-08-03T02:28:11.859Z,74.57
2017-08-03T02:29:11.851Z,74.38
2017-08-03T02:30:12.168Z,74.48
2017-08-03T02:31:11.831Z,74.67
2017-08-03T02:32:11.821Z,74.29
2017-08-03T02:33:11.829Z,74.67
2017-08-03T02:34:11.820Z,74.38
2017-08-03T02:35:11.805Z,74.86
2017-08-03T02:36:12.125Z,74.96
2017-08-03T02:37:11.793Z,74.76
2017-08-03T02:38:11.783Z,74.38
2017-08-03T02:39:11.781Z,74.76
2017-08-03T02:40:11.771Z,74.96
2017-08-03T02:41:11.777Z,74.29
2017-08-03T02:42:11.796Z,74.29
2017-08-03T02:43:11.752Z,74.48
2017-08-03T02:44:11.755Z,74.48
2017-08-03T02:45:11.754Z,74.48
2017-08-03T02:46:12.156Z,74.48
2017-08-03T02:47:11.724Z,74.48
2017-08-03T02:48:11.727Z,74.48
2017-08-03T02:49:11.722Z,74.29
2017-08-03T02:50:11.720Z,74.29
2017-08-03T02:51:11.697Z,74.29
2017-08-03T02:52:12.007Z,74.48
2017-08-03T02:53:11.692Z,74.48
2017-08-03T02:54:11.687Z,74.38
2017-08-03T02:55:11.672Z,73.99
2017-08-03T02:56:11.666Z,74.29
2017-08-03T02:57:11.675Z,74.57
2017-08-03T02:58:12.029Z,74.86
2017-08-03T02:59:11.660Z,74.48
2017-08-03T03:00:11.659Z,74.29
2017-08-03T03:01:11.648Z,74.48
2017-08-03T03:02:11.626Z,74.29
2017-08-03T03:03:11.629Z,74.96
2017-08-03T03:04:11.648Z,74.19
2017-08-03T03:05:11.614Z,74.67
2017-08-03T03:06:11.615Z,74.76
2017-08-03T03:07:11.605Z,74.19
2017-08-03T03:08:11.607Z,74.19
2017-08-03T03:09:11.896Z,74.48
2017-08-03T03:10:11.584Z,74.48
2017-08-03T03:11:11.587Z,74.19
2017-08-03T03:12:11.576Z,74.67
2017-08-03T03:13:11.568Z,74.19
2017-08-03T03:14:11.554Z,73.99
2017-08-03T03:15:11.591Z,74.09
2017-08-03T03:16:11.552Z,74.29
2017-08-03T03:17:11.547Z,74.67
2017-08-03T03:18:11.532Z,74.57
2017-08-03T03:19:11.551Z,75.15
2017-08-03T03:20:11.522Z,74.96
2017-08-03T03:21:11.509Z,74.57
2017-08-03T03:22:11.514Z,74.38
2017-08-03T03:23:11.504Z,74.57
2017-08-03T03:24:11.536Z,75.44
2017-08-03T03:25:11.487Z,74.67
2017-08-03T03:26:11.486Z,75.54
2017-08-03T03:27:11.486Z,76.31
2017-08-03T03:28:11.463Z,75.44
2017-08-03T03:29:11.830Z,76.21
2017-08-03T03:30:11.463Z,76.40
2017-08-03T03:31:11.451Z,75.92
2017-08-03T03:32:11.437Z,76.11
2017-08-03T03:33:11.442Z,76.31
2017-08-03T03:34:11.438Z,76.31
2017-08-03T03:35:11.460Z,76.40
2017-08-03T03:36:11.407Z,75.82
2017-08-03T03:37:11.403Z,75.82
2017-08-03T03:38:11.409Z,75.82
2017-08-03T03:39:11.698Z,76.11
2017-08-03T03:40:11.395Z,75.82
2017-08-03T03:41:11.393Z,75.44
2017-08-03T03:42:11.370Z,75.92
2017-08-03T03:43:11.378Z,75.63
2017-08-03T03:44:11.369Z,75.73
2017-08-03T03:45:11.395Z,76.11
2017-08-03T03:46:11.345Z,76.31
2017-08-03T03:47:11.346Z,76.88
2017-08-03T03:48:11.329Z,75.82
2017-08-03T03:49:11.323Z,76.21
2017-08-03T03:50:11.856Z,76.01
2017-08-03T03:51:11.327Z,76.31
2017-08-03T03:52:11.308Z,76.31
2017-08-03T03:53:11.307Z,76.40
2017-08-03T03:54:11.301Z,75.92
2017-08-03T03:55:11.286Z,75.63
2017-08-03T03:56:11.583Z,75.73
2017-08-03T03:57:11.274Z,75.54
2017-08-03T03:58:11.275Z,75.63
2017-08-03T03:59:11.271Z,75.73
2017-08-03T04:00:11.262Z,75.63
2017-08-03T04:01:11.257Z,75.82
2017-08-03T04:02:11.607Z,75.82
2017-08-03T04:03:11.244Z,75.73
2017-08-03T04:04:11.238Z,75.92
2017-08-03T04:05:11.235Z,75.54
2017-08-03T04:06:11.222Z,75.73
2017-08-03T04:07:11.233Z,76.31
2017-08-03T04:08:11.529Z,76.40
2017-08-03T04:09:11.203Z,76.40
2017-08-03T04:10:11.186Z,76.40
2017-08-03T04:11:11.191Z,76.50
2017-08-03T04:12:11.188Z,76.40
2017-08-03T04:13:11.168Z,76.11
2017-08-03T04:14:11.468Z,76.40
2017-08-03T04:15:11.165Z,76.11
2017-08-03T04:16:11.144Z,76.40
2017-08-03T04:17:11.153Z,75.54
2017-08-03T04:18:11.132Z,76.50
2017-08-03T04:19:11.126Z,75.82
2017-08-03T04:20:11.149Z,75.82
2017-08-03T04:21:11.114Z,76.01
2017-08-03T04:22:11.139Z,75.82
2017-08-03T04:23:11.113Z,75.73
2017-08-03T04:24:11.095Z,75.63
2017-08-03T04:25:11.515Z,75.73
2017-08-03T04:26:11.078Z,75.92
2017-08-03T04:27:11.086Z,75.82
2017-08-03T04:28:11.070Z,75.92
2017-08-03T04:29:11.083Z,75.92
2017-08-03T04:30:11.065Z,76.88
2017-08-03T04:31:11.264Z,77.17
2017-08-03T04:32:11.045Z,76.11
2017-08-03T04:33:11.046Z,76.40
2017-08-03T04:34:11.478Z,76.98
2017-08-03T04:35:11.741Z,76.98
2017-08-03T04:36:11.032Z,76.69
2017-08-03T04:37:11.054Z,76.84
2017-08-03T04:38:11.015Z,76.69
2017-08-03T04:39:10.999Z,76.88
2017-08-03T04:40:11.330Z,76.69
2017-08-03T04:41:10.981Z,76.69
2017-08-03T04:42:10.990Z,76.69
2017-08-03T04:43:10.973Z,76.21
2017-08-03T04:44:10.975Z,76.59
2017-08-03T04:45:10.968Z,76.59
2017-08-03T04:46:11.322Z,76.69
2017-08-03T04:47:10.964Z,76.78
2017-08-03T04:48:10.936Z,76.59
2017-08-03T04:49:10.932Z,76.69
2017-08-03T04:50:10.948Z,76.59
2017-08-03T04:51:10.913Z,76.59
2017-08-03T04:52:11.245Z,76.59
2017-08-03T04:53:10.906Z,75.73
2017-08-03T04:54:10.908Z,76.40
2017-08-03T04:55:10.902Z,76.11
2017-08-03T04:56:10.884Z,76.69
2017-08-03T04:57:10.879Z,76.50
2017-08-03T04:58:11.215Z,76.21
2017-08-03T04:59:10.885Z,76.69
2017-08-03T05:00:10.859Z,76.59
2017-08-03T05:01:10.854Z,76.50
2017-08-03T05:02:10.854Z,76.78
2017-08-03T05:03:10.847Z,76.88
2017-08-03T05:04:10.875Z,76.78
2017-08-03T05:05:10.839Z,76.59
2017-08-03T05:06:10.833Z,77.65
2017-08-03T05:07:10.813Z,77.56
2017-08-03T05:08:10.817Z,77.46
2017-08-03T05:09:11.119Z,77.26
2017-08-03T05:10:10.789Z,77.36
2017-08-03T05:11:10.797Z,77.17
2017-08-03T05:12:10.780Z,77.17
2017-08-03T05:13:10.775Z,77.26
2017-08-03T05:14:10.766Z,77.26
2017-08-03T05:15:11.167Z,77.26
2017-08-03T05:16:10.762Z,77.26
2017-08-03T05:17:10.761Z,77.46
2017-08-03T05:18:10.741Z,77.17
2017-08-03T05:19:10.748Z,76.69
2017-08-03T05:20:10.726Z,77.36
2017-08-03T05:21:11.056Z,77.36
2017-08-03T05:22:10.716Z,76.78
2017-08-03T05:23:10.708Z,77.08
2017-08-03T05:24:10.716Z,77.08
2017-08-03T05:25:10.694Z,76.69
2017-08-03T05:26:10.687Z,77.08
2017-08-03T05:27:10.719Z,77.17
2017-08-03T05:28:10.683Z,76.78
2017-08-03T05:29:10.675Z,76.59
2017-08-03T05:30:10.662Z,76.98
2017-08-03T05:31:10.665Z,76.50
2017-08-03T05:32:11.009Z,76.78
2017-08-03T05:33:10.663Z,77.26
2017-08-03T05:34:10.647Z,76.69
2017-08-03T05:35:10.644Z,76.98
2017-08-03T05:36:10.621Z,76.59
2017-08-03T05:37:10.616Z,76.59
2017-08-03T05:38:10.917Z,76.78
2017-08-03T05:39:10.603Z,76.88
2017-08-03T05:40:10.609Z,76.78
2017-08-03T05:41:10.591Z,76.40
2017-08-03T05:42:10.589Z,76.31
2017-08-03T05:43:10.577Z,76.69
2017-08-03T05:44:10.603Z,76.11
2017-08-03T05:45:10.577Z,76.59
2017-08-03T05:46:10.561Z,76.59
2017-08-03T05:47:10.862Z,76.59
2017-08-03T05:48:10.555Z,76.50
2017-08-03T05:49:10.552Z,76.50
2017-08-03T05:50:10.554Z,76.59
2017-08-03T05:51:10.535Z,76.88
2017-08-03T05:52:10.519Z,76.69
2017-08-03T05:53:10.864Z,76.50
2017-08-03T05:54:10.511Z,76.21
2017-08-03T05:55:10.505Z,77.26
2017-08-03T05:56:10.490Z,77.17
2017-08-03T05:57:10.494Z,76.88
2017-08-03T05:58:10.492Z,76.78
2017-08-03T05:59:10.781Z,76.88
2017-08-03T06:00:10.467Z,76.78
2017-08-03T06:01:10.473Z,76.78
2017-08-03T06:02:10.466Z,77.26
2017-08-03T06:03:10.458Z,76.69
2017-08-03T06:04:10.442Z,76.50
2017-08-03T06:05:10.490Z,76.88
2017-08-03T06:06:10.437Z,76.78
2017-08-03T06:07:10.434Z,76.50
2017-08-03T06:08:10.757Z,76.31
2017-08-03T06:09:10.425Z,76.50
2017-08-03T06:10:10.412Z,76.15
2017-08-03T06:11:10.410Z,76.44
2017-08-03T06:12:10.409Z,76.73
2017-08-03T06:13:10.411Z,76.63
2017-08-03T06:14:10.691Z,76.53
2017-08-03T06:15:10.372Z,76.78
2017-08-03T06:16:10.379Z,76.63
2017-08-03T06:17:10.372Z,76.82
2017-08-03T06:18:10.367Z,76.53
2017-08-03T06:19:10.350Z,76.73
2017-08-03T06:20:10.559Z,76.63
2017-08-03T06:21:10.351Z,76.63
2017-08-03T06:22:10.327Z,76.63
2017-08-03T06:23:10.342Z,76.44
2017-08-03T06:24:10.327Z,76.44
2017-08-03T06:25:10.321Z,76.44
2017-08-03T06:26:10.617Z,76.63
2017-08-03T06:27:10.953Z,76.25
2017-08-03T06:28:10.313Z,76.34
2017-08-03T06:29:10.303Z,76.82
2017-08-03T06:30:10.296Z,76.82
2017-08-03T06:31:10.283Z,76.82
2017-08-03T06:32:10.577Z,76.92
2017-08-03T06:33:10.271Z,76.82
2017-08-03T06:34:10.266Z,76.92
2017-08-03T06:35:10.264Z,77.21
2017-08-03T06:36:10.243Z,76.63
2017-08-03T06:37:10.245Z,77.31
2017-08-03T06:38:10.261Z,77.31
2017-08-03T06:39:10.229Z,76.82
2017-08-03T06:40:10.571Z,76.73
2017-08-03T06:41:10.212Z,76.63
2017-08-03T06:42:10.210Z,76.92
2017-08-03T06:43:10.217Z,76.53
2017-08-03T06:44:10.192Z,76.63
2017-08-03T06:45:10.195Z,77.31
2017-08-03T06:46:10.507Z,77.31
2017-08-03T06:47:10.174Z,77.31
2017-08-03T06:48:10.177Z,77.21
2017-08-03T06:49:10.163Z,76.92
2017-08-03T06:50:10.152Z,76.82
2017-08-03T06:51:10.163Z,77.11
2017-08-03T06:52:10.185Z,76.86
2017-08-03T06:53:10.152Z,77.11
2017-08-03T06:54:10.129Z,77.11
2017-08-03T06:55:10.587Z,77.11
2017-08-03T06:56:10.120Z,77.01
2017-08-03T06:57:10.133Z,76.82
2017-08-03T06:58:10.106Z,76.73
2017-08-03T06:59:10.100Z,76.92
2017-08-03T07:00:10.106Z,76.92
2017-08-03T07:01:10.557Z,78.27
2017-08-03T07:02:10.550Z,78.17
2017-08-03T07:03:10.517Z,77.69
2017-08-03T07:04:10.067Z,77.59
2017-08-03T07:05:10.076Z,77.59
2017-08-03T07:06:10.057Z,77.50
2017-08-03T07:07:10.369Z,77.88
2017-08-03T07:08:10.053Z,77.69
2017-08-03T07:09:10.041Z,77.98
2017-08-03T07:10:10.040Z,77.78
2017-08-03T07:11:10.038Z,77.78
2017-08-03T07:12:10.031Z,77.78
2017-08-03T07:13:10.234Z,77.50
2017-08-03T07:14:10.007Z,77.59
2017-08-03T07:15:10.024Z,77.59
2017-08-03T07:16:09.995Z,77.59
2017-08-03T07:17:10.002Z,77.59
2017-08-03T07:18:09.994Z,77.50
2017-08-03T07:19:10.003Z,77.69
2017-08-03T07:20:09.979Z,77.40
2017-08-03T07:21:10.342Z,77.59
2017-08-03T07:22:09.968Z,77.69
2017-08-03T07:23:09.958Z,77.63
2017-08-03T07:24:09.948Z,77.69
2017-08-03T07:25:09.942Z,77.78
2017-08-03T07:26:09.947Z,77.63
2017-08-03T07:27:09.972Z,77.69
2017-08-03T07:28:09.933Z,77.78
2017-08-03T07:29:09.939Z,77.83
2017-08-03T07:30:09.911Z,77.92
2017-08-03T07:31:10.296Z,77.73
2017-08-03T07:32:09.903Z,77.15
2017-08-03T07:33:09.905Z,77.92
2017-08-03T07:34:09.887Z,77.73
2017-08-03T07:35:09.895Z,77.15
2017-08-03T07:36:09.891Z,77.34
2017-08-03T07:37:10.184Z,77.53
2017-08-03T07:38:09.869Z,77.53
2017-08-03T07:39:09.856Z,78.02
2017-08-03T07:40:09.864Z,77.25
2017-08-03T07:41:09.858Z,77.34
2017-08-03T07:42:09.847Z,77.25
2017-08-03T07:43:10.308Z,77.53
2017-08-03T07:44:09.837Z,77.34
2017-08-03T07:45:09.832Z,77.63
2017-08-03T07:46:09.829Z,77.53
2017-08-03T07:47:09.823Z,77.53
2017-08-03T07:48:09.823Z,77.34
2017-08-03T07:49:10.207Z,77.34
2017-08-03T07:50:09.803Z,78.02
2017-08-03T07:51:09.809Z,79.85
2017-08-03T07:52:09.794Z,79.17
2017-08-03T07:53:09.779Z,78.59
2017-08-03T07:54:09.782Z,79.17
2017-08-03T07:55:09.805Z,81.58
2017-08-03T07:56:09.761Z,80.23
2017-08-03T07:57:09.800Z,80.52
2017-08-03T07:58:09.760Z,82.06
2017-08-03T07:59:09.772Z,82.74
2017-08-03T08:00:09.747Z,83.22
2017-08-03T08:01:09.748Z,82.35
2017-08-03T08:02:10.188Z,83.51
2017-08-03T08:03:09.751Z,83.22
2017-08-03T08:04:09.798Z,83.03
2017-08-03T08:05:10.623Z,83.41
2017-08-03T08:06:09.717Z,83.99
2017-08-03T08:07:10.939Z,84.38
2017-08-03T08:08:11.276Z,83.70
2017-08-03T08:09:10.395Z,84.18
2017-08-03T08:10:09.990Z,84.56
2017-08-03T08:11:10.298Z,83.99
2017-08-03T08:12:10.303Z,83.99
2017-08-03T08:13:11.546Z,84.22
2017-08-03T08:14:10.979Z,84.18
2017-08-03T08:15:11.090Z,84.09
2017-08-03T08:16:11.289Z,83.22
2017-08-03T08:17:10.247Z,83.45
2017-08-03T08:18:10.421Z,83.07
2017-08-03T08:19:09.806Z,83.64
2017-08-03T08:20:09.982Z,83.74
2017-08-03T08:21:09.624Z,83.74
2017-08-03T08:22:09.612Z,82.68
2017-08-03T08:23:10.393Z,83.26
2017-08-03T08:24:10.199Z,83.84
2017-08-03T08:25:09.598Z,83.84
2017-08-03T08:26:09.955Z,84.03
2017-08-03T08:27:09.590Z,84.17
2017-08-03T08:28:09.568Z,83.20
2017-08-03T08:29:09.581Z,83.50
2017-08-03T08:30:10.307Z,83.20
2017-08-03T08:31:10.244Z,83.11
2017-08-03T08:32:10.847Z,82.34
2017-08-03T08:33:09.695Z,82.28
2017-08-03T08:34:09.772Z,81.76
2017-08-03T08:35:09.548Z,82.38
2017-08-03T08:36:09.544Z,80.74
2017-08-03T08:37:10.252Z,80.69
2017-08-03T08:38:10.666Z,78.67
2017-08-03T08:39:09.525Z,81.02
2017-08-03T08:40:09.516Z,80.16
2017-08-03T08:41:09.524Z,78.67
2017-08-03T08:42:09.514Z,79.16
2017-08-03T08:43:09.507Z,79.64
2017-08-03T08:44:09.542Z,78.52
2017-08-03T08:45:09.589Z,78.91
2017-08-03T08:46:10.342Z,77.46
2017-08-03T08:47:11.886Z,78.13
2017-08-03T08:48:09.846Z,77.26
2017-08-03T08:49:09.479Z,77.17
2017-08-03T08:50:09.466Z,74.08
2017-08-03T08:51:09.462Z,74.95
2017-08-03T08:52:10.167Z,74.76
2017-08-03T08:53:09.638Z,74.85
2017-08-03T08:54:10.264Z,74.57
2017-08-03T08:55:09.472Z,73.99
2017-08-03T08:56:09.446Z,72.58
2017-08-03T08:57:10.065Z,72.48
2017-08-03T08:58:09.424Z,71.61
2017-08-03T08:59:10.889Z,68.62
2017-08-03T09:00:10.295Z,67.36
2017-08-03T09:01:09.891Z,67.07
2017-08-03T09:02:09.417Z,66.88
2017-08-03T09:03:10.888Z,67.17
2017-08-03T09:04:10.093Z,66.49
2017-08-03T09:05:09.817Z,66.59
2017-08-03T09:06:09.696Z,67.85
2017-08-03T09:07:09.898Z,66.78
2017-08-03T09:08:10.228Z,67.07
2017-08-03T09:09:10.494Z,66.40
2017-08-03T09:10:09.585Z,65.72
2017-08-03T09:11:09.845Z,65.14
2017-08-03T09:12:09.607Z,66.40
2017-08-03T09:13:10.566Z,64.66
2017-08-03T09:14:09.735Z,64.86
2017-08-03T09:15:10.121Z,65.53
2017-08-03T09:16:09.909Z,65.05
2017-08-03T09:17:09.849Z,66.40
2017-08-03T09:18:09.681Z,65.91
2017-08-03T09:19:10.104Z,66.30
2017-08-03T09:20:10.124Z,66.88
2017-08-03T09:21:10.237Z,67.17
2017-08-03T09:22:09.369Z,67.27
2017-08-03T09:23:09.978Z,68.33
2017-08-03T09:24:09.959Z,67.55
2017-08-03T09:25:09.472Z,66.49
2017-08-03T09:26:09.388Z,66.97
2017-08-03T09:27:09.854Z,67.75
2017-08-03T09:28:09.505Z,67.94
2017-08-03T09:29:09.862Z,68.23
2017-08-03T09:30:09.714Z,67.36
2017-08-03T09:31:10.044Z,67.55
2017-08-03T09:32:09.737Z,66.88
2017-08-03T09:33:09.697Z,68.71
2017-08-03T09:34:09.390Z,68.81
2017-08-03T09:35:09.482Z,68.91
2017-08-03T09:36:09.541Z,68.71
2017-08-03T09:37:09.641Z,70.26
2017-08-03T09:38:09.686Z,69.87
2017-08-03T09:39:10.766Z,69.97
2017-08-03T09:40:09.964Z,70.64
2017-08-03T09:41:10.023Z,70.64
2017-08-03T09:42:09.974Z,71.03
2017-08-03T09:43:09.209Z,71.42
2017-08-03T09:44:09.209Z,71.51
2017-08-03T09:45:11.383Z,71.22
2017-08-03T09:46:10.011Z,71.32
2017-08-03T09:47:09.210Z,71.58
2017-08-03T09:48:09.538Z,71.38
2017-08-03T09:49:09.660Z,71.61
2017-08-03T09:50:09.392Z,71.03
2017-08-03T09:51:10.657Z,71.42
2017-08-03T09:52:09.330Z,71.42
2017-08-03T09:53:09.424Z,71.51
2017-08-03T09:54:09.163Z,71.70
2017-08-03T09:55:09.146Z,72.09
2017-08-03T09:56:09.130Z,72.00
2017-08-03T09:57:09.343Z,71.80
2017-08-03T09:58:09.131Z,72.28
2017-08-03T09:59:10.406Z,72.00
2017-08-03T10:00:09.849Z,72.58
2017-08-03T10:01:09.214Z,69.68
2017-08-03T10:02:09.104Z,68.81
2017-08-03T10:03:09.148Z,69.97
2017-08-03T10:04:10.408Z,70.06
2017-08-03T10:05:09.729Z,69.49
2017-08-03T10:06:12.416Z,67.75
2017-08-03T10:07:09.091Z,68.13
2017-08-03T10:08:09.085Z,68.62
2017-08-03T10:09:09.435Z,68.33
2017-08-03T10:10:09.083Z,68.33
2017-08-03T10:11:10.315Z,67.07
2017-08-03T10:12:10.161Z,66.97
2017-08-03T10:13:09.617Z,66.63
2017-08-03T10:14:09.672Z,66.14
2017-08-03T10:15:09.416Z,65.17
2017-08-03T10:16:09.619Z,66.91
2017-08-03T10:17:09.061Z,64.40
2017-08-03T10:18:09.037Z,65.85
2017-08-03T10:19:09.168Z,65.75
2017-08-03T10:20:09.847Z,62.86
2017-08-03T10:21:12.794Z,63.73
2017-08-03T10:22:09.022Z,62.76
2017-08-03T10:23:09.612Z,62.95
2017-08-03T10:24:09.168Z,61.99
2017-08-03T10:25:09.580Z,59.99
2017-08-03T10:26:23.788Z,61.34
2017-08-03T10:27:08.998Z,61.83
2017-08-03T10:28:08.988Z,61.83
2017-08-03T10:29:08.992Z,60.47
2017-08-03T10:30:08.987Z,61.15
2017-08-03T10:31:08.993Z,58.54
2017-08-03T10:32:09.311Z,58.93
2017-08-03T10:33:09.752Z,57.96
2017-08-03T10:34:09.796Z,58.35
2017-08-03T10:35:10.053Z,58.73
2017-08-03T10:36:09.211Z,58.73
2017-08-03T10:37:09.424Z,59.99
2017-08-03T10:38:09.162Z,58.83
2017-08-03T10:39:09.090Z,58.25
2017-08-03T10:40:09.286Z,58.54
2017-08-03T10:41:11.385Z,57.29
2017-08-03T10:42:11.538Z,58.93
2017-08-03T10:43:09.064Z,58.83
2017-08-03T10:44:08.941Z,60.86
2017-08-03T10:45:08.922Z,61.05
2017-08-03T10:46:11.206Z,59.80
2017-08-03T10:47:09.728Z,59.31
2017-08-03T10:48:10.517Z,59.89
2017-08-03T10:49:08.922Z,59.89
2017-08-03T10:50:08.977Z,61.05
2017-08-03T10:51:08.981Z,60.67
2017-08-03T10:52:09.002Z,59.60
2017-08-03T10:53:09.024Z,60.18
2017-08-03T10:54:10.170Z,60.28
2017-08-03T10:55:09.542Z,59.80
2017-08-03T10:56:09.292Z,59.60
2017-08-03T10:57:09.003Z,60.96
2017-08-03T10:58:09.087Z,61.34
2017-08-03T10:59:09.226Z,61.63
2017-08-03T11:00:09.444Z,60.86
2017-08-03T11:01:09.477Z,62.50
2017-08-03T11:02:11.667Z,62.31
2017-08-03T11:03:16.060Z,63.37
2017-08-03T11:04:12.435Z,60.86
2017-08-03T11:05:09.614Z,62.98
2017-08-03T11:06:10.970Z,63.08
2017-08-03T11:07:09.124Z,62.70
2017-08-03T11:08:08.935Z,63.08
2017-08-03T11:09:08.886Z,62.02
2017-08-03T11:10:09.125Z,61.54
2017-08-03T11:11:10.378Z,62.40
2017-08-03T11:12:09.606Z,62.12
2017-08-03T11:13:09.321Z,62.89
2017-08-03T11:14:08.807Z,63.28
2017-08-03T11:15:08.801Z,63.08
2017-08-03T11:16:09.085Z,63.08
2017-08-03T11:17:08.799Z,61.92
2017-08-03T11:18:08.788Z,62.24
2017-08-03T11:19:08.798Z,62.63
2017-08-03T11:20:08.780Z,62.44
2017-08-03T11:21:09.558Z,63.02
2017-08-03T11:22:09.983Z,60.79
2017-08-03T11:23:08.776Z,62.82
2017-08-03T11:24:08.814Z,61.37
2017-08-03T11:25:08.828Z,61.08
2017-08-03T11:26:09.484Z,62.08
2017-08-03T11:27:08.760Z,61.02
2017-08-03T11:28:08.753Z,60.82
2017-08-03T11:29:08.747Z,61.21
2017-08-03T11:30:08.742Z,59.66
2017-08-03T11:31:09.503Z,60.34
2017-08-03T11:32:09.212Z,61.11
2017-08-03T11:33:08.739Z,60.53
2017-08-03T11:34:08.739Z,60.44
2017-08-03T11:35:09.508Z,60.63
2017-08-03T11:36:08.726Z,61.50
2017-08-03T11:37:08.726Z,61.21
2017-08-03T11:38:08.757Z,59.92
2017-08-03T11:39:09.493Z,60.02
2017-08-03T11:40:08.809Z,60.02
2017-08-03T11:41:09.781Z,60.50
2017-08-03T11:42:09.184Z,60.31
2017-08-03T11:43:09.013Z,61.18
2017-08-03T11:44:09.069Z,60.69
2017-08-03T11:45:12.435Z,60.31
2017-08-03T11:46:09.495Z,60.38
2017-08-03T11:47:09.434Z,61.15
2017-08-03T11:48:08.694Z,60.86
2017-08-03T11:49:09.462Z,61.54
2017-08-03T11:50:09.462Z,60.96
2017-08-03T11:51:08.679Z,62.02
2017-08-03T11:52:09.470Z,60.96
2017-08-03T11:53:09.748Z,61.05
2017-08-03T11:54:08.729Z,62.40
2017-08-03T11:55:08.666Z,62.31
2017-08-03T11:56:09.446Z,62.21
2017-08-03T11:57:09.451Z,62.50
2017-08-03T11:58:08.976Z,63.08
2017-08-03T11:59:08.689Z,63.28
2017-08-03T12:00:09.464Z,64.14
2017-08-03T12:01:09.117Z,64.79
2017-08-03T12:02:09.103Z,66.05
2017-08-03T12:03:09.701Z,65.75
2017-08-03T12:04:08.755Z,67.20
2017-08-03T12:05:09.404Z,67.40
2017-08-03T12:06:09.131Z,68.81
2017-08-03T12:07:09.399Z,68.33
2017-08-03T12:08:09.591Z,69.97
2017-08-03T12:09:08.636Z,70.80
2017-08-03T12:10:09.299Z,71.00
2017-08-03T12:11:09.413Z,71.86
2017-08-03T12:12:09.511Z,72.54
2017-08-03T12:13:08.603Z,72.79
2017-08-03T12:14:08.926Z,73.47
2017-08-03T12:15:09.950Z,74.14
2017-08-03T12:16:09.328Z,74.33
2017-08-03T12:17:09.213Z,74.91
2017-08-03T12:18:08.566Z,75.49
2017-08-03T12:19:08.560Z,75.40
2017-08-03T12:20:08.768Z,76.42
2017-08-03T12:21:08.628Z,76.80
2017-08-03T12:22:09.210Z,76.80
2017-08-03T12:23:08.533Z,77.03
2017-08-03T12:24:08.532Z,78.25
2017-08-03T12:25:08.605Z,77.86
2017-08-03T12:26:08.745Z,78.09
2017-08-03T12:27:08.508Z,77.51
2017-08-03T12:28:08.513Z,76.55
2017-08-03T12:29:08.552Z,76.75
2017-08-03T12:30:08.595Z,77.36
2017-08-03T12:31:08.690Z,77.46
2017-08-03T12:32:10.024Z,76.30
2017-08-03T12:33:09.234Z,76.50
2017-08-03T12:34:14.219Z,74.95
2017-08-03T12:35:08.537Z,75.34
2017-08-03T12:36:08.467Z,75.14
2017-08-03T12:37:08.462Z,75.05
2017-08-03T12:38:09.293Z,75.14
2017-08-03T12:39:09.218Z,75.24
2017-08-03T12:40:08.624Z,74.18
2017-08-03T12:41:08.513Z,73.79
2017-08-03T12:42:08.561Z,74.57
2017-08-03T12:43:09.196Z,74.57
2017-08-03T12:44:08.809Z,74.37
2017-08-03T12:45:09.221Z,74.85
2017-08-03T12:46:09.085Z,74.08
2017-08-03T12:47:08.410Z,75.24
2017-08-03T12:48:08.409Z,74.66
2017-08-03T12:49:08.397Z,74.27
2017-08-03T12:50:08.567Z,73.11
2017-08-03T12:51:08.420Z,73.60
2017-08-03T12:52:09.159Z,72.92